sensor_id;sensor_type;location;lat;lon;timestamp;P1;durP1;ratioP1;P2;durP2;ratioP2
15383;SDS011;7790;53.022;12.968;2022-08-01T00:02:05;3.10;;;2.80;;
15383;SDS011;7790;53.022;12.968;2022-08-01T00:06:06;2.40;;;2.30;;
15383;SDS011;7790;53.022;12.968;2022-08-01T00:10:08;2.70;;;2.50;;
15383;SDS011;7790;53.022;12.968;2022-08-01T00:14:13;2.70;;;2.50;;
15383;SDS011;7790;53.022;12.968;2022-08-01T00:18:14;3.20;;;2.60;;
15383;SDS011;7790;53.022;12.968;2022-08-01T00:22:15;2.90;;;2.70;;
15383;SDS011;7790;53.022;12.968;2022-08-01T00:26:16;2.90;;;2.70;;
15383;SDS011;7790;53.022;12.968;2022-08-01T00:30:17;2.83;;;2.60;;
15383;SDS011;7790;53.022;12.968;2022-08-01T00:34:17;2.90;;;2.70;;
15383;SDS011;7790;53.022;12.968;2022-08-01T00:38:18;3.00;;;2.80;;
15383;SDS011;7790;53.022;12.968;2022-08-01T00:42:19;2.97;;;2.67;;
15383;SDS011;7790;53.022;12.968;2022-08-01T00:46:20;2.80;;;2.60;;
15383;SDS011;7790;53.022;12.968;2022-08-01T00:50:21;2.80;;;2.60;;
15383;SDS011;7790;53.022;12.968;2022-08-01T00:54:23;2.50;;;2.30;;
15383;SDS011;7790;53.022;12.968;2022-08-01T00:58:25;3.00;;;2.43;;
15383;SDS011;7790;53.022;12.968;2022-08-01T01:02:28;2.53;;;2.33;;
15383;SDS011;7790;53.022;12.968;2022-08-01T01:11:01;2.97;;;2.50;;
15383;SDS011;7790;53.022;12.968;2022-08-01T01:15:13;2.70;;;2.50;;
15383;SDS011;7790;53.022;12.968;2022-08-01T01:19:30;2.40;;;2.30;;
15383;SDS011;7790;53.022;12.968;2022-08-01T01:23:40;3.00;;;2.80;;
15383;SDS011;7790;53.022;12.968;2022-08-01T01:32:09;2.77;;;2.50;;
15383;SDS011;7790;53.022;12.968;2022-08-01T01:36:17;2.80;;;2.60;;
15383;SDS011;7790;53.022;12.968;2022-08-01T01:40:19;2.70;;;2.50;;
15383;SDS011;7790;53.022;12.968;2022-08-01T01:44:21;2.90;;;2.40;;
15383;SDS011;7790;53.022;12.968;2022-08-01T01:48:22;2.50;;;2.30;;
15383;SDS011;7790;53.022;12.968;2022-08-01T01:52:25;2.80;;;2.60;;
15383;SDS011;7790;53.022;12.968;2022-08-01T01:56:28;2.63;;;2.53;;
15383;SDS011;7790;53.022;12.968;2022-08-01T02:00:30;2.30;;;2.20;;
15383;SDS011;7790;53.022;12.968;2022-08-01T02:04:33;2.90;;;2.70;;
15383;SDS011;7790;53.022;12.968;2022-08-01T02:08:37;2.40;;;2.23;;
15383;SDS011;7790;53.022;12.968;2022-08-01T02:12:41;2.70;;;2.50;;
15383;SDS011;7790;53.022;12.968;2022-08-01T02:16:47;2.70;;;2.50;;
15383;SDS011;7790;53.022;12.968;2022-08-01T02:20:49;3.00;;;2.80;;
15383;SDS011;7790;53.022;12.968;2022-08-01T02:25:11;2.60;;;2.40;;
15383;SDS011;7790;53.022;12.968;2022-08-01T02:29:22;3.50;;;2.40;;
15383;SDS011;7790;53.022;12.968;2022-08-01T02:33:30;2.33;;;2.17;;
15383;SDS011;7790;53.022;12.968;2022-08-01T02:37:39;2.60;;;2.40;;
15383;SDS011;7790;53.022;12.968;2022-08-01T02:41:42;2.83;;;2.63;;
15383;SDS011;7790;53.022;12.968;2022-08-01T02:45:46;2.90;;;2.70;;
15383;SDS011;7790;53.022;12.968;2022-08-01T02:49:52;3.00;;;2.50;;
15383;SDS011;7790;53.022;12.968;2022-08-01T02:53:54;3.10;;;2.40;;
15383;SDS011;7790;53.022;12.968;2022-08-01T02:57:56;2.70;;;2.50;;
15383;SDS011;7790;53.022;12.968;2022-08-01T03:01:59;2.63;;;2.43;;
15383;SDS011;7790;53.022;12.968;2022-08-01T03:06:01;2.83;;;2.60;;
15383;SDS011;7790;53.022;12.968;2022-08-01T03:10:04;2.60;;;2.40;;
15383;SDS011;7790;53.022;12.968;2022-08-01T03:14:05;2.77;;;2.23;;
15383;SDS011;7790;53.022;12.968;2022-08-01T03:18:09;2.60;;;2.40;;
15383;SDS011;7790;53.022;12.968;2022-08-01T03:22:12;3.00;;;2.70;;
15383;SDS011;7790;53.022;12.968;2022-08-01T03:26:15;3.27;;;2.50;;
15383;SDS011;7790;53.022;12.968;2022-08-01T03:30:16;3.10;;;2.30;;
15383;SDS011;7790;53.022;12.968;2022-08-01T03:34:17;3.93;;;2.70;;
15383;SDS011;7790;53.022;12.968;2022-08-01T03:38:23;2.70;;;2.50;;
15383;SDS011;7790;53.022;12.968;2022-08-01T03:42:27;2.43;;;2.30;;
15383;SDS011;7790;53.022;12.968;2022-08-01T03:46:35;2.63;;;2.40;;
15383;SDS011;7790;53.022;12.968;2022-08-01T03:50:43;2.83;;;2.37;;
15383;SDS011;7790;53.022;12.968;2022-08-01T03:54:49;2.40;;;2.20;;
15383;SDS011;7790;53.022;12.968;2022-08-01T03:58:51;2.80;;;2.60;;
15383;SDS011;7790;53.022;12.968;2022-08-01T04:02:53;2.80;;;2.60;;
15383;SDS011;7790;53.022;12.968;2022-08-01T04:06:55;3.10;;;2.27;;
15383;SDS011;7790;53.022;12.968;2022-08-01T04:10:55;2.70;;;2.50;;
15383;SDS011;7790;53.022;12.968;2022-08-01T04:14:58;2.70;;;2.50;;
15383;SDS011;7790;53.022;12.968;2022-08-01T04:18:59;2.63;;;2.27;;
15383;SDS011;7790;53.022;12.968;2022-08-01T04:23:00;2.50;;;2.30;;
15383;SDS011;7790;53.022;12.968;2022-08-01T04:27:01;2.50;;;2.30;;
15383;SDS011;7790;53.022;12.968;2022-08-01T04:31:06;2.40;;;2.30;;
15383;SDS011;7790;53.022;12.968;2022-08-01T04:35:11;2.63;;;2.43;;
15383;SDS011;7790;53.022;12.968;2022-08-01T04:39:16;2.70;;;2.50;;
15383;SDS011;7790;53.022;12.968;2022-08-01T04:43:19;2.37;;;2.17;;
15383;SDS011;7790;53.022;12.968;2022-08-01T04:47:20;2.53;;;2.33;;
15383;SDS011;7790;53.022;12.968;2022-08-01T04:51:21;2.53;;;2.40;;
15383;SDS011;7790;53.022;12.968;2022-08-01T04:55:22;2.50;;;2.40;;
15383;SDS011;7790;53.022;12.968;2022-08-01T04:59:23;2.60;;;2.40;;
15383;SDS011;7790;53.022;12.968;2022-08-01T05:03:42;2.67;;;2.47;;
15383;SDS011;7790;53.022;12.968;2022-08-01T05:07:44;2.60;;;2.40;;
15383;SDS011;7790;53.022;12.968;2022-08-01T05:11:44;3.97;;;2.80;;
15383;SDS011;7790;53.022;12.968;2022-08-01T05:15:45;2.70;;;2.50;;
15383;SDS011;7790;53.022;12.968;2022-08-01T05:19:46;2.23;;;2.03;;
15383;SDS011;7790;53.022;12.968;2022-08-01T05:23:47;3.93;;;2.30;;
15383;SDS011;7790;53.022;12.968;2022-08-01T05:27:49;2.33;;;2.13;;
15383;SDS011;7790;53.022;12.968;2022-08-01T05:31:50;2.60;;;2.40;;
15383;SDS011;7790;53.022;12.968;2022-08-01T05:35:51;2.63;;;2.30;;
15383;SDS011;7790;53.022;12.968;2022-08-01T05:39:52;2.40;;;2.30;;
15383;SDS011;7790;53.022;12.968;2022-08-01T05:43:53;2.30;;;2.10;;
15383;SDS011;7790;53.022;12.968;2022-08-01T05:47:54;2.30;;;2.10;;
15383;SDS011;7790;53.022;12.968;2022-08-01T05:51:55;2.57;;;2.37;;
15383;SDS011;7790;53.022;12.968;2022-08-01T05:55:56;2.30;;;2.20;;
15383;SDS011;7790;53.022;12.968;2022-08-01T05:59:57;2.30;;;2.20;;
15383;SDS011;7790;53.022;12.968;2022-08-01T06:03:58;2.43;;;2.10;;
15383;SDS011;7790;53.022;12.968;2022-08-01T06:07:58;2.13;;;2.00;;
15383;SDS011;7790;53.022;12.968;2022-08-01T06:11:59;2.93;;;2.23;;
15383;SDS011;7790;53.022;12.968;2022-08-01T06:16:00;2.40;;;2.17;;
15383;SDS011;7790;53.022;12.968;2022-08-01T06:20:01;2.10;;;2.00;;
15383;SDS011;7790;53.022;12.968;2022-08-01T06:24:03;1.93;;;1.80;;
15383;SDS011;7790;53.022;12.968;2022-08-01T06:28:04;2.50;;;2.30;;
15383;SDS011;7790;53.022;12.968;2022-08-01T06:32:05;2.30;;;2.20;;
15383;SDS011;7790;53.022;12.968;2022-08-01T06:36:06;2.47;;;2.27;;
15383;SDS011;7790;53.022;12.968;2022-08-01T06:40:08;2.20;;;2.10;;
15383;SDS011;7790;53.022;12.968;2022-08-01T06:44:10;1.97;;;1.87;;
15383;SDS011;7790;53.022;12.968;2022-08-01T06:48:12;2.50;;;2.30;;
15383;SDS011;7790;53.022;12.968;2022-08-01T06:52:13;3.40;;;2.23;;
15383;SDS011;7790;53.022;12.968;2022-08-01T06:56:14;1.80;;;1.70;;
15383;SDS011;7790;53.022;12.968;2022-08-01T07:00:15;2.50;;;2.30;;
15383;SDS011;7790;53.022;12.968;2022-08-01T07:04:18;2.50;;;2.30;;
15383;SDS011;7790;53.022;12.968;2022-08-01T07:08:20;2.30;;;2.10;;
15383;SDS011;7790;53.022;12.968;2022-08-01T07:12:21;2.37;;;2.27;;
15383;SDS011;7790;53.022;12.968;2022-08-01T07:16:22;3.63;;;2.30;;
15383;SDS011;7790;53.022;12.968;2022-08-01T07:20:23;3.60;;;2.20;;
15383;SDS011;7790;53.022;12.968;2022-08-01T07:24:24;2.37;;;2.27;;
15383;SDS011;7790;53.022;12.968;2022-08-01T07:28:24;2.47;;;2.23;;
15383;SDS011;7790;53.022;12.968;2022-08-01T07:32:25;2.23;;;2.13;;
15383;SDS011;7790;53.022;12.968;2022-08-01T07:36:26;2.30;;;2.10;;
15383;SDS011;7790;53.022;12.968;2022-08-01T07:40:27;2.30;;;2.10;;
15383;SDS011;7790;53.022;12.968;2022-08-01T07:44:28;5.33;;;2.40;;
15383;SDS011;7790;53.022;12.968;2022-08-01T07:48:29;4.20;;;1.90;;
15383;SDS011;7790;53.022;12.968;2022-08-01T07:52:30;3.00;;;1.90;;
15383;SDS011;7790;53.022;12.968;2022-08-01T07:56:31;2.57;;;1.70;;
15383;SDS011;7790;53.022;12.968;2022-08-01T08:00:32;2.47;;;1.70;;
15383;SDS011;7790;53.022;12.968;2022-08-01T08:04:32;2.37;;;1.70;;
15383;SDS011;7790;53.022;12.968;2022-08-01T08:08:34;5.70;;;1.90;;
15383;SDS011;7790;53.022;12.968;2022-08-01T08:12:35;3.67;;;1.70;;
15383;SDS011;7790;53.022;12.968;2022-08-01T08:16:36;3.13;;;1.77;;
15383;SDS011;7790;53.022;12.968;2022-08-01T08:20:37;2.10;;;1.77;;
15383;SDS011;7790;53.022;12.968;2022-08-01T08:24:38;1.80;;;1.70;;
15383;SDS011;7790;53.022;12.968;2022-08-01T08:28:39;3.70;;;1.83;;
15383;SDS011;7790;53.022;12.968;2022-08-01T08:32:40;3.83;;;2.30;;
15383;SDS011;7790;53.022;12.968;2022-08-01T08:36:41;4.13;;;1.80;;
15383;SDS011;7790;53.022;12.968;2022-08-01T08:40:42;2.80;;;1.77;;
15383;SDS011;7790;53.022;12.968;2022-08-01T08:44:44;1.87;;;1.67;;
15383;SDS011;7790;53.022;12.968;2022-08-01T08:48:45;1.70;;;1.60;;
15383;SDS011;7790;53.022;12.968;2022-08-01T08:52:46;2.20;;;1.90;;
15383;SDS011;7790;53.022;12.968;2022-08-01T08:56:48;1.97;;;1.60;;
15383;SDS011;7790;53.022;12.968;2022-08-01T09:00:50;2.03;;;1.80;;
15383;SDS011;7790;53.022;12.968;2022-08-01T09:04:52;1.70;;;1.60;;
15383;SDS011;7790;53.022;12.968;2022-08-01T09:08:53;1.67;;;1.57;;
15383;SDS011;7790;53.022;12.968;2022-08-01T09:13:05;1.67;;;1.57;;
15383;SDS011;7790;53.022;12.968;2022-08-01T09:17:11;2.60;;;1.30;;
15383;SDS011;7790;53.022;12.968;2022-08-01T09:21:14;2.03;;;1.60;;
15383;SDS011;7790;53.022;12.968;2022-08-01T09:25:17;4.03;;;1.60;;
15383;SDS011;7790;53.022;12.968;2022-08-01T09:29:19;2.57;;;1.70;;
15383;SDS011;7790;53.022;12.968;2022-08-01T09:33:22;1.43;;;1.33;;
15383;SDS011;7790;53.022;12.968;2022-08-01T09:37:29;1.50;;;1.40;;
15383;SDS011;7790;53.022;12.968;2022-08-01T09:41:31;2.10;;;1.80;;
15383;SDS011;7790;53.022;12.968;2022-08-01T09:45:32;1.70;;;1.60;;
15383;SDS011;7790;53.022;12.968;2022-08-01T09:49:34;2.00;;;1.80;;
15383;SDS011;7790;53.022;12.968;2022-08-01T09:53:40;4.17;;;1.70;;
15383;SDS011;7790;53.022;12.968;2022-08-01T09:57:54;3.30;;;1.40;;
15383;SDS011;7790;53.022;12.968;2022-08-01T10:01:56;2.13;;;1.23;;
15383;SDS011;7790;53.022;12.968;2022-08-01T10:05:57;4.63;;;1.37;;
15383;SDS011;7790;53.022;12.968;2022-08-01T10:10:11;1.50;;;1.40;;
15383;SDS011;7790;53.022;12.968;2022-08-01T10:14:13;1.20;;;1.20;;
15383;SDS011;7790;53.022;12.968;2022-08-01T10:18:14;1.20;;;1.00;;
15383;SDS011;7790;53.022;12.968;2022-08-01T10:22:15;1.43;;;1.20;;
15383;SDS011;7790;53.022;12.968;2022-08-01T10:26:18;1.00;;;1.00;;
15383;SDS011;7790;53.022;12.968;2022-08-01T10:30:19;1.20;;;0.90;;
15383;SDS011;7790;53.022;12.968;2022-08-01T10:34:20;1.00;;;1.00;;
15383;SDS011;7790;53.022;12.968;2022-08-01T10:38:23;1.40;;;1.30;;
15383;SDS011;7790;53.022;12.968;2022-08-01T10:42:24;1.30;;;1.20;;
15383;SDS011;7790;53.022;12.968;2022-08-01T10:46:25;2.93;;;1.63;;
15383;SDS011;7790;53.022;12.968;2022-08-01T10:54:39;1.80;;;1.70;;
15383;SDS011;7790;53.022;12.968;2022-08-01T10:58:42;2.93;;;1.90;;
15383;SDS011;7790;53.022;12.968;2022-08-01T11:02:56;2.27;;;2.07;;
15383;SDS011;7790;53.022;12.968;2022-08-01T11:07:07;2.40;;;2.20;;
15383;SDS011;7790;53.022;12.968;2022-08-01T11:11:13;2.77;;;2.57;;
15383;SDS011;7790;53.022;12.968;2022-08-01T11:19:17;1.80;;;1.70;;
15383;SDS011;7790;53.022;12.968;2022-08-01T11:23:18;2.60;;;2.20;;
15383;SDS011;7790;53.022;12.968;2022-08-01T11:35:23;2.10;;;1.90;;
15383;SDS011;7790;53.022;12.968;2022-08-01T11:39:26;4.13;;;2.00;;
15383;SDS011;7790;53.022;12.968;2022-08-01T11:43:27;2.07;;;1.87;;
15383;SDS011;7790;53.022;12.968;2022-08-01T11:52:03;1.80;;;1.70;;
15383;SDS011;7790;53.022;12.968;2022-08-01T11:56:05;1.70;;;1.60;;
15383;SDS011;7790;53.022;12.968;2022-08-01T12:00:11;2.73;;;1.70;;
15383;SDS011;7790;53.022;12.968;2022-08-01T12:04:17;1.97;;;1.77;;
15383;SDS011;7790;53.022;12.968;2022-08-01T12:08:28;2.97;;;1.40;;
15383;SDS011;7790;53.022;12.968;2022-08-01T12:12:34;2.43;;;1.47;;
15383;SDS011;7790;53.022;12.968;2022-08-01T12:16:36;3.23;;;1.40;;
15383;SDS011;7790;53.022;12.968;2022-08-01T12:20:37;2.40;;;1.23;;
15383;SDS011;7790;53.022;12.968;2022-08-01T12:24:40;1.47;;;1.37;;
15383;SDS011;7790;53.022;12.968;2022-08-01T12:28:42;2.43;;;1.47;;
15383;SDS011;7790;53.022;12.968;2022-08-01T12:32:46;1.53;;;1.30;;
15383;SDS011;7790;53.022;12.968;2022-08-01T12:36:47;1.40;;;1.30;;
15383;SDS011;7790;53.022;12.968;2022-08-01T12:40:48;1.10;;;1.10;;
15383;SDS011;7790;53.022;12.968;2022-08-01T12:44:50;2.70;;;0.93;;
15383;SDS011;7790;53.022;12.968;2022-08-01T12:48:52;1.80;;;1.00;;
15383;SDS011;7790;53.022;12.968;2022-08-01T12:52:53;1.87;;;0.90;;
15383;SDS011;7790;53.022;12.968;2022-08-01T12:56:54;3.43;;;0.90;;
15383;SDS011;7790;53.022;12.968;2022-08-01T13:01:07;5.67;;;0.80;;
15383;SDS011;7790;53.022;12.968;2022-08-01T13:05:09;4.63;;;0.80;;
15383;SDS011;7790;53.022;12.968;2022-08-01T13:09:11;0.80;;;0.80;;
15383;SDS011;7790;53.022;12.968;2022-08-01T13:13:13;1.17;;;0.80;;
15383;SDS011;7790;53.022;12.968;2022-08-01T13:17:32;0.50;;;0.50;;
15383;SDS011;7790;53.022;12.968;2022-08-01T13:21:39;0.50;;;0.50;;
15383;SDS011;7790;53.022;12.968;2022-08-01T13:25:55;0.50;;;0.50;;
15383;SDS011;7790;53.022;12.968;2022-08-01T13:29:56;1.77;;;0.93;;
15383;SDS011;7790;53.022;12.968;2022-08-01T13:34:11;1.60;;;0.50;;
15383;SDS011;7790;53.022;12.968;2022-08-01T13:38:12;2.17;;;0.90;;
15383;SDS011;7790;53.022;12.968;2022-08-01T13:42:14;0.50;;;0.50;;
15383;SDS011;7790;53.022;12.968;2022-08-01T13:46:16;4.73;;;1.13;;
15383;SDS011;7790;53.022;12.968;2022-08-01T13:50:17;1.30;;;0.80;;
15383;SDS011;7790;53.022;12.968;2022-08-01T13:54:18;0.87;;;0.80;;
15383;SDS011;7790;53.022;12.968;2022-08-01T13:58:19;1.37;;;0.77;;
15383;SDS011;7790;53.022;12.968;2022-08-01T14:02:20;0.73;;;0.73;;
15383;SDS011;7790;53.022;12.968;2022-08-01T14:06:21;1.60;;;0.90;;
15383;SDS011;7790;53.022;12.968;2022-08-01T14:10:23;2.63;;;1.10;;
15383;SDS011;7790;53.022;12.968;2022-08-01T14:14:26;1.43;;;0.80;;
15383;SDS011;7790;53.022;12.968;2022-08-01T14:18:27;3.43;;;0.90;;
15383;SDS011;7790;53.022;12.968;2022-08-01T14:22:28;3.73;;;1.20;;
15383;SDS011;7790;53.022;12.968;2022-08-01T14:26:29;2.27;;;1.07;;
15383;SDS011;7790;53.022;12.968;2022-08-01T14:30:30;1.63;;;0.80;;
15383;SDS011;7790;53.022;12.968;2022-08-01T14:34:31;0.90;;;0.90;;
15383;SDS011;7790;53.022;12.968;2022-08-01T14:38:32;0.90;;;0.70;;
15383;SDS011;7790;53.022;12.968;2022-08-01T14:42:33;1.43;;;0.70;;
15383;SDS011;7790;53.022;12.968;2022-08-01T14:46:34;1.20;;;0.80;;
15383;SDS011;7790;53.022;12.968;2022-08-01T14:50:34;2.20;;;0.80;;
15383;SDS011;7790;53.022;12.968;2022-08-01T14:54:36;2.93;;;0.90;;
15383;SDS011;7790;53.022;12.968;2022-08-01T14:58:37;1.80;;;0.80;;
15383;SDS011;7790;53.022;12.968;2022-08-01T15:02:37;1.10;;;0.80;;
15383;SDS011;7790;53.022;12.968;2022-08-01T15:06:39;1.13;;;0.80;;
15383;SDS011;7790;53.022;12.968;2022-08-01T15:10:40;1.53;;;0.80;;
15383;SDS011;7790;53.022;12.968;2022-08-01T15:14:41;2.63;;;0.80;;
15383;SDS011;7790;53.022;12.968;2022-08-01T15:18:47;1.33;;;0.80;;
15383;SDS011;7790;53.022;12.968;2022-08-01T15:22:48;5.20;;;0.80;;
15383;SDS011;7790;53.022;12.968;2022-08-01T15:26:49;0.93;;;0.57;;
15383;SDS011;7790;53.022;12.968;2022-08-01T15:30:50;2.37;;;0.90;;
15383;SDS011;7790;53.022;12.968;2022-08-01T15:34:51;6.10;;;0.87;;
15383;SDS011;7790;53.022;12.968;2022-08-01T15:38:52;17.43;;;1.70;;
15383;SDS011;7790;53.022;12.968;2022-08-01T15:42:53;2.63;;;1.00;;
15383;SDS011;7790;53.022;12.968;2022-08-01T15:46:54;2.57;;;1.10;;
15383;SDS011;7790;53.022;12.968;2022-08-01T15:50:55;2.43;;;0.90;;
15383;SDS011;7790;53.022;12.968;2022-08-01T15:54:56;2.07;;;0.90;;
15383;SDS011;7790;53.022;12.968;2022-08-01T15:58:57;5.37;;;1.20;;
15383;SDS011;7790;53.022;12.968;2022-08-01T16:02:58;1.73;;;1.20;;
15383;SDS011;7790;53.022;12.968;2022-08-01T16:06:59;1.90;;;1.00;;
15383;SDS011;7790;53.022;12.968;2022-08-01T16:11:00;1.10;;;0.80;;
15383;SDS011;7790;53.022;12.968;2022-08-01T16:15:01;1.93;;;1.00;;
15383;SDS011;7790;53.022;12.968;2022-08-01T16:19:02;2.77;;;1.07;;
15383;SDS011;7790;53.022;12.968;2022-08-01T16:23:04;1.07;;;0.90;;
15383;SDS011;7790;53.022;12.968;2022-08-01T16:27:05;1.33;;;1.10;;
15383;SDS011;7790;53.022;12.968;2022-08-01T16:31:06;1.90;;;0.90;;
15383;SDS011;7790;53.022;12.968;2022-08-01T16:35:07;1.87;;;1.10;;
15383;SDS011;7790;53.022;12.968;2022-08-01T16:39:08;1.47;;;1.20;;
15383;SDS011;7790;53.022;12.968;2022-08-01T16:43:09;1.17;;;0.80;;
15383;SDS011;7790;53.022;12.968;2022-08-01T16:47:10;2.80;;;1.00;;
15383;SDS011;7790;53.022;12.968;2022-08-01T16:51:11;2.27;;;1.20;;
15383;SDS011;7790;53.022;12.968;2022-08-01T16:55:12;3.43;;;1.17;;
15383;SDS011;7790;53.022;12.968;2022-08-01T16:59:13;2.47;;;1.30;;
15383;SDS011;7790;53.022;12.968;2022-08-01T17:03:14;2.50;;;1.13;;
15383;SDS011;7790;53.022;12.968;2022-08-01T17:07:15;1.60;;;1.30;;
15383;SDS011;7790;53.022;12.968;2022-08-01T17:11:15;3.00;;;1.10;;
15383;SDS011;7790;53.022;12.968;2022-08-01T17:15:16;1.90;;;1.30;;
15383;SDS011;7790;53.022;12.968;2022-08-01T17:19:17;1.10;;;1.00;;
15383;SDS011;7790;53.022;12.968;2022-08-01T17:23:18;2.53;;;1.30;;
15383;SDS011;7790;53.022;12.968;2022-08-01T17:27:19;2.23;;;1.20;;
15383;SDS011;7790;53.022;12.968;2022-08-01T17:31:20;1.70;;;1.30;;
15383;SDS011;7790;53.022;12.968;2022-08-01T17:35:20;1.40;;;1.30;;
15383;SDS011;7790;53.022;12.968;2022-08-01T17:39:22;2.07;;;1.50;;
15383;SDS011;7790;53.022;12.968;2022-08-01T17:43:22;1.80;;;1.40;;
15383;SDS011;7790;53.022;12.968;2022-08-01T17:47:24;2.13;;;1.70;;
15383;SDS011;7790;53.022;12.968;2022-08-01T17:51:24;2.70;;;1.93;;
15383;SDS011;7790;53.022;12.968;2022-08-01T17:55:25;2.50;;;1.53;;
15383;SDS011;7790;53.022;12.968;2022-08-01T17:59:26;2.17;;;1.60;;
15383;SDS011;7790;53.022;12.968;2022-08-01T18:03:27;2.20;;;2.00;;
15383;SDS011;7790;53.022;12.968;2022-08-01T18:07:30;2.57;;;1.70;;
15383;SDS011;7790;53.022;12.968;2022-08-01T18:11:31;2.50;;;1.90;;
15383;SDS011;7790;53.022;12.968;2022-08-01T18:15:32;2.50;;;1.87;;
15383;SDS011;7790;53.022;12.968;2022-08-01T18:19:33;2.80;;;1.80;;
15383;SDS011;7790;53.022;12.968;2022-08-01T18:23:33;4.70;;;2.13;;
15383;SDS011;7790;53.022;12.968;2022-08-01T18:27:34;3.63;;;2.10;;
15383;SDS011;7790;53.022;12.968;2022-08-01T18:31:36;2.27;;;1.87;;
15383;SDS011;7790;53.022;12.968;2022-08-01T18:35:37;4.87;;;2.63;;
15383;SDS011;7790;53.022;12.968;2022-08-01T18:39:39;4.17;;;1.93;;
15383;SDS011;7790;53.022;12.968;2022-08-01T18:43:40;6.80;;;2.13;;
15383;SDS011;7790;53.022;12.968;2022-08-01T18:47:40;4.90;;;2.30;;
15383;SDS011;7790;53.022;12.968;2022-08-01T18:51:41;3.90;;;1.83;;
15383;SDS011;7790;53.022;12.968;2022-08-01T18:55:44;2.97;;;2.00;;
15383;SDS011;7790;53.022;12.968;2022-08-01T18:59:45;5.27;;;2.17;;
15383;SDS011;7790;53.022;12.968;2022-08-01T19:03:46;2.73;;;1.77;;
15383;SDS011;7790;53.022;12.968;2022-08-01T19:07:47;3.87;;;2.00;;
15383;SDS011;7790;53.022;12.968;2022-08-01T19:11:47;4.43;;;2.00;;
15383;SDS011;7790;53.022;12.968;2022-08-01T19:15:49;3.20;;;1.77;;
15383;SDS011;7790;53.022;12.968;2022-08-01T19:19:51;4.97;;;2.20;;
15383;SDS011;7790;53.022;12.968;2022-08-01T19:23:54;6.47;;;1.90;;
15383;SDS011;7790;53.022;12.968;2022-08-01T19:28:14;2.57;;;1.57;;
15383;SDS011;7790;53.022;12.968;2022-08-01T19:32:19;5.43;;;1.80;;
15383;SDS011;7790;53.022;12.968;2022-08-01T19:36:22;2.50;;;1.97;;
15383;SDS011;7790;53.022;12.968;2022-08-01T19:40:24;4.97;;;2.03;;
15383;SDS011;7790;53.022;12.968;2022-08-01T19:44:25;6.57;;;2.57;;
15383;SDS011;7790;53.022;12.968;2022-08-01T19:48:28;9.43;;;2.97;;
15383;SDS011;7790;53.022;12.968;2022-08-01T19:52:29;9.67;;;2.50;;
15383;SDS011;7790;53.022;12.968;2022-08-01T19:56:36;5.03;;;2.20;;
15383;SDS011;7790;53.022;12.968;2022-08-01T20:00:40;5.07;;;2.30;;
15383;SDS011;7790;53.022;12.968;2022-08-01T20:04:42;8.90;;;2.47;;
15383;SDS011;7790;53.022;12.968;2022-08-01T20:08:43;8.30;;;2.20;;
15383;SDS011;7790;53.022;12.968;2022-08-01T20:12:46;4.63;;;2.20;;
15383;SDS011;7790;53.022;12.968;2022-08-01T20:16:48;7.33;;;2.47;;
15383;SDS011;7790;53.022;12.968;2022-08-01T20:20:51;7.43;;;1.83;;
15383;SDS011;7790;53.022;12.968;2022-08-01T20:24:53;6.63;;;2.00;;
15383;SDS011;7790;53.022;12.968;2022-08-01T20:28:58;4.77;;;1.80;;
15383;SDS011;7790;53.022;12.968;2022-08-01T20:32:59;5.80;;;2.00;;
15383;SDS011;7790;53.022;12.968;2022-08-01T20:37:00;5.63;;;1.53;;
15383;SDS011;7790;53.022;12.968;2022-08-01T20:41:02;4.83;;;1.97;;
15383;SDS011;7790;53.022;12.968;2022-08-01T20:45:04;5.70;;;2.03;;
15383;SDS011;7790;53.022;12.968;2022-08-01T20:49:05;5.17;;;2.10;;
15383;SDS011;7790;53.022;12.968;2022-08-01T20:53:09;5.23;;;1.70;;
15383;SDS011;7790;53.022;12.968;2022-08-01T20:57:15;7.87;;;1.93;;
15383;SDS011;7790;53.022;12.968;2022-08-01T21:01:28;3.03;;;1.80;;
15383;SDS011;7790;53.022;12.968;2022-08-01T21:05:40;2.53;;;1.73;;
15383;SDS011;7790;53.022;12.968;2022-08-01T21:09:42;3.27;;;1.67;;
15383;SDS011;7790;53.022;12.968;2022-08-01T21:13:48;3.47;;;1.37;;
15383;SDS011;7790;53.022;12.968;2022-08-01T21:22:19;6.50;;;2.00;;
15383;SDS011;7790;53.022;12.968;2022-08-01T21:26:30;2.50;;;1.70;;
15383;SDS011;7790;53.022;12.968;2022-08-01T21:30:34;5.07;;;1.70;;
15383;SDS011;7790;53.022;12.968;2022-08-01T21:34:36;2.60;;;1.80;;
15383;SDS011;7790;53.022;12.968;2022-08-01T21:38:38;2.73;;;1.50;;
15383;SDS011;7790;53.022;12.968;2022-08-01T21:42:40;3.10;;;1.80;;
15383;SDS011;7790;53.022;12.968;2022-08-01T21:46:45;4.40;;;1.67;;
15383;SDS011;7790;53.022;12.968;2022-08-01T22:03:29;2.00;;;1.63;;
15383;SDS011;7790;53.022;12.968;2022-08-01T22:07:50;3.27;;;1.73;;
15383;SDS011;7790;53.022;12.968;2022-08-01T22:11:52;3.43;;;1.80;;
15383;SDS011;7790;53.022;12.968;2022-08-01T22:15:55;4.07;;;1.67;;
15383;SDS011;7790;53.022;12.968;2022-08-01T22:19:56;2.97;;;2.00;;
15383;SDS011;7790;53.022;12.968;2022-08-01T22:23:58;4.83;;;1.70;;
15383;SDS011;7790;53.022;12.968;2022-08-01T22:28:01;2.13;;;1.60;;
15383;SDS011;7790;53.022;12.968;2022-08-01T22:32:03;3.30;;;1.70;;
15383;SDS011;7790;53.022;12.968;2022-08-01T22:36:05;4.10;;;1.83;;
15383;SDS011;7790;53.022;12.968;2022-08-01T22:40:07;4.93;;;1.67;;
15383;SDS011;7790;53.022;12.968;2022-08-01T22:44:10;3.53;;;1.80;;
15383;SDS011;7790;53.022;12.968;2022-08-01T22:48:17;4.60;;;2.03;;
15383;SDS011;7790;53.022;12.968;2022-08-01T22:52:27;3.53;;;1.80;;
15383;SDS011;7790;53.022;12.968;2022-08-01T22:56:28;4.27;;;1.87;;
15383;SDS011;7790;53.022;12.968;2022-08-01T23:00:35;2.67;;;1.50;;
15383;SDS011;7790;53.022;12.968;2022-08-01T23:04:44;2.23;;;1.77;;
15383;SDS011;7790;53.022;12.968;2022-08-01T23:08:47;3.90;;;2.10;;
15383;SDS011;7790;53.022;12.968;2022-08-01T23:12:51;4.30;;;1.77;;
15383;SDS011;7790;53.022;12.968;2022-08-01T23:16:53;2.67;;;1.83;;
15383;SDS011;7790;53.022;12.968;2022-08-01T23:20:59;2.70;;;1.70;;
15383;SDS011;7790;53.022;12.968;2022-08-01T23:25:03;2.23;;;1.73;;
15383;SDS011;7790;53.022;12.968;2022-08-01T23:29:07;2.93;;;1.97;;
15383;SDS011;7790;53.022;12.968;2022-08-01T23:33:09;2.03;;;1.67;;
15383;SDS011;7790;53.022;12.968;2022-08-01T23:37:10;3.20;;;1.90;;
15383;SDS011;7790;53.022;12.968;2022-08-01T23:41:12;2.33;;;1.60;;
15383;SDS011;7790;53.022;12.968;2022-08-01T23:45:15;4.67;;;1.83;;
15383;SDS011;7790;53.022;12.968;2022-08-01T23:49:16;2.17;;;1.57;;
15383;SDS011;7790;53.022;12.968;2022-08-01T23:53:17;4.67;;;1.67;;
15383;SDS011;7790;53.022;12.968;2022-08-01T23:57:18;2.93;;;2.07;;
